Time;durP1;ratioP1;P1;durP2;ratioP2;P2;SDS_P1;SDS_P2;PMS_P1;PMS_P2;Temp;Humidity;BMP_temperature;BMP_pressure;BME280_temperature;BME280_humidity;BME280_pressure;Samples;Min_cycle;Max_cycle;Signal;HPM_P1;HPM_P2
2024/03/03 00:02:10;;;;;;;1.03;0.80;;;21.70;68.90;;;;;;5000253;28;20498;-71
2024/03/03 00:04:37;;;;;;;1.10;0.70;;;21.40;68.50;;;;;;5006560;28;20499;-71
2024/03/03 00:07:04;;;;;;;1.20;0.60;;;21.40;68.60;;;;;;5001197;28;20464;-71
2024/03/03 00:09:32;;;;;;;1.73;0.80;;;21.40;68.60;;;;;;5001370;28;20955;-71
2024/03/03 00:12:00;;;;;;;1.00;0.80;;;21.40;68.60;;;;;;5003623;28;20302;-71
2024/03/03 00:14:26;;;;;;;1.75;1.65;;;21.10;68.30;;;;;;5000842;28;20491;-70
2024/03/03 00:16:53;;;;;;;1.15;0.90;;;21.30;68.50;;;;;;5000639;28;20199;-71
2024/03/03 00:19:20;;;;;;;1.53;0.80;;;21.50;68.80;;;;;;4999713;28;20496;-71
2024/03/03 00:21:47;;;;;;;0.90;0.70;;;21.40;68.70;;;;;;5002692;28;20455;-71
2024/03/03 00:24:13;;;;;;;0.97;0.80;;;21.40;68.60;;;;;;5001489;28;20463;-71
2024/03/03 00:26:40;;;;;;;0.93;0.70;;;21.30;68.60;;;;;;5004910;28;20452;-71
2024/03/03 00:29:08;;;;;;;1.30;0.80;;;21.20;68.50;;;;;;4999382;28;20472;-71
2024/03/03 00:31:42;;;;;;;1.00;0.77;;;21.10;68.40;;;;;;5003432;28;20204;-71
2024/03/03 00:34:09;;;;;;;0.97;0.80;;;21.20;68.50;;;;;;5005421;28;20541;-71
2024/03/03 00:36:36;;;;;;;0.90;0.60;;;21.50;68.90;;;;;;5002293;28;20463;-71
2024/03/03 00:39:04;;;;;;;1.00;0.70;;;21.30;68.50;;;;;;5001774;28;20463;-71
2024/03/03 00:41:30;;;;;;;0.90;0.60;;;21.30;68.70;;;;;;4997823;28;20467;-71
2024/03/03 00:43:57;;;;;;;1.20;0.80;;;21.70;69.00;;;;;;5004557;28;20988;-71
2024/03/03 00:46:25;;;;;;;1.20;0.90;;;21.00;68.30;;;;;;5005353;28;20470;-71
2024/03/03 00:48:52;;;;;;;0.90;0.70;;;21.00;68.20;;;;;;5004157;28;22048;-70
2024/03/03 00:51:18;;;;;;;0.90;0.60;;;21.00;68.40;;;;;;5004341;28;20980;-70
2024/03/03 00:53:45;;;;;;;1.38;1.15;;;21.20;68.70;;;;;;5006399;28;20870;-70
2024/03/03 00:56:12;;;;;;;1.00;0.77;;;21.20;68.60;;;;;;5000910;28;20576;-70
2024/03/03 00:58:38;;;;;;;1.77;0.90;;;21.20;68.70;;;;;;5003734;28;20459;-70
2024/03/03 01:01:05;;;;;;;1.00;0.80;;;21.60;69.20;;;;;;5003220;28;20213;-70
2024/03/03 01:03:33;;;;;;;1.07;0.70;;;21.60;69.30;;;;;;5001598;28;20464;-70
2024/03/03 01:06:00;;;;;;;1.30;0.83;;;21.20;68.70;;;;;;5006981;28;21026;-71
2024/03/03 01:08:27;;;;;;;1.00;0.80;;;21.20;68.80;;;;;;4999348;28;20463;-70
2024/03/03 01:10:53;;;;;;;0.93;0.70;;;20.90;68.50;;;;;;5006195;28;20207;-70
2024/03/03 01:13:20;;;;;;;1.00;0.80;;;21.10;68.80;;;;;;4996815;28;20497;-70
2024/03/03 01:15:47;;;;;;;1.20;0.88;;;21.00;68.50;;;;;;4999681;28;20201;-69
2024/03/03 01:18:14;;;;;;;2.27;1.40;;;21.10;68.60;;;;;;4997133;28;20706;-69
2024/03/03 01:20:42;;;;;;;1.33;0.80;;;21.10;68.60;;;;;;5001515;28;20460;-69
2024/03/03 01:23:08;;;;;;;1.10;0.80;;;21.10;68.90;;;;;;4997328;28;20675;-69
2024/03/03 01:25:36;;;;;;;1.00;0.73;;;21.30;68.70;;;;;;5002801;28;20651;-70
2024/03/03 01:28:03;;;;;;;1.25;0.88;;;21.30;68.80;;;;;;4998746;28;20200;-69
2024/03/03 01:30:30;;;;;;;1.00;0.70;;;21.10;68.50;;;;;;4994662;28;20204;-70
2024/03/03 01:32:57;;;;;;;1.20;0.80;;;21.10;68.70;;;;;;5000119;28;20220;-70
2024/03/03 01:35:24;;;;;;;1.33;0.70;;;20.90;68.40;;;;;;5002101;28;20207;-71
2024/03/03 01:37:52;;;;;;;1.40;0.80;;;20.80;68.90;;;;;;5007490;28;20299;-70
2024/03/03 01:40:19;;;;;;;1.00;0.80;;;21.00;68.60;;;;;;5004773;28;20201;-70
2024/03/03 01:42:46;;;;;;;1.05;0.80;;;20.80;68.40;;;;;;5007444;28;20269;-69
2024/03/03 01:45:21;;;;;;;1.10;0.80;;;21.00;68.60;;;;;;4999866;28;20203;-70
2024/03/03 01:47:48;;;;;;;1.30;1.00;;;21.00;68.70;;;;;;4999843;28;20251;-70
2024/03/03 01:50:15;;;;;;;1.00;0.70;;;21.10;68.70;;;;;;5003851;28;20679;-70
2024/03/03 01:52:41;;;;;;;1.15;0.90;;;20.90;68.70;;;;;;5010210;28;20196;-71
2024/03/03 01:55:10;;;;;;;1.00;0.70;;;20.90;68.60;;;;;;5006744;28;20205;-70
2024/03/03 01:57:37;;;;;;;2.33;0.90;;;20.80;68.50;;;;;;5007195;28;20880;-70
2024/03/03 02:00:09;;;;;;;1.52;0.70;;;20.90;68.70;;;;;;5006391;28;21021;-70
2024/03/03 02:02:36;;;;;;;1.20;0.80;;;21.00;68.80;;;;;;4998102;28;20192;-70
2024/03/03 02:05:03;;;;;;;1.17;0.70;;;20.80;68.70;;;;;;5005938;28;20191;-70
2024/03/03 02:07:32;;;;;;;1.23;0.77;;;20.90;68.80;;;;;;5003536;28;20203;-70
2024/03/03 02:09:59;;;;;;;1.10;0.80;;;20.90;68.70;;;;;;5008543;28;20765;-69
2024/03/03 02:12:28;;;;;;;1.00;0.70;;;20.90;68.90;;;;;;5004515;28;20206;-71
2024/03/03 02:14:55;;;;;;;1.00;0.70;;;20.90;68.70;;;;;;5008004;28;21142;-69
2024/03/03 02:17:22;;;;;;;1.10;0.70;;;20.90;68.70;;;;;;5006117;28;20703;-70
2024/03/03 02:19:49;;;;;;;1.00;0.70;;;21.20;69.10;;;;;;5006759;28;20698;-70
2024/03/03 02:22:17;;;;;;;1.10;0.85;;;20.80;68.60;;;;;;5006440;28;20207;-71
2024/03/03 02:24:43;;;;;;;1.20;1.10;;;20.90;68.70;;;;;;5005716;28;21064;-70
2024/03/03 02:27:11;;;;;;;0.90;0.70;;;20.90;68.70;;;;;;5010266;28;20201;-70
2024/03/03 02:29:38;;;;;;;1.20;0.85;;;21.30;69.20;;;;;;5009850;28;20203;-70
2024/03/03 02:32:05;;;;;;;1.33;0.80;;;20.70;68.40;;;;;;5007687;28;20727;-69
2024/03/03 02:37:55;;;;;;;1.00;0.70;;;20.80;68.50;;;;;;4994003;28;20247;-70
2024/03/03 02:40:22;;;;;;;0.90;0.70;;;20.80;68.70;;;;;;5008278;28;20200;-70
2024/03/03 02:42:49;;;;;;;1.15;0.85;;;20.80;68.90;;;;;;5002986;28;20196;-69
2024/03/03 02:45:16;;;;;;;1.00;0.80;;;20.80;68.80;;;;;;5008333;28;20195;-70
2024/03/03 02:47:43;;;;;;;1.10;0.75;;;20.80;68.90;;;;;;5007862;28;20243;-72
2024/03/03 02:50:10;;;;;;;1.20;0.80;;;20.70;68.80;;;;;;5007839;28;20228;-71
2024/03/03 02:52:37;;;;;;;2.80;0.95;;;20.80;68.80;;;;;;5007200;28;20230;-71
2024/03/03 02:55:05;;;;;;;1.33;0.80;;;20.90;68.90;;;;;;5009766;28;20230;-70
2024/03/03 02:57:32;;;;;;;1.75;0.70;;;20.80;69.40;;;;;;5012341;28;20677;-69
2024/03/03 02:59:58;;;;;;;1.38;1.00;;;21.30;69.30;;;;;;5012589;28;20661;-70
2024/03/03 03:02:25;;;;;;;0.90;0.77;;;20.60;68.40;;;;;;5005347;28;20572;-70
2024/03/03 03:04:53;;;;;;;1.10;0.80;;;20.80;68.70;;;;;;5005621;28;21081;-70
2024/03/03 03:07:20;;;;;;;1.08;0.80;;;20.50;68.20;;;;;;5003811;28;20200;-71
2024/03/03 03:09:47;;;;;;;1.10;0.70;;;20.70;69.00;;;;;;5000130;28;20788;-70
2024/03/03 03:12:15;;;;;;;0.90;0.60;;;20.80;68.60;;;;;;5002216;28;20621;-70
2024/03/03 03:14:42;;;;;;;1.77;0.90;;;20.70;68.70;;;;;;5002959;28;20603;-70
2024/03/03 03:17:09;;;;;;;1.00;0.80;;;20.60;68.50;;;;;;5004626;28;20207;-70
2024/03/03 03:19:35;;;;;;;1.25;0.90;;;20.70;68.60;;;;;;5003773;28;20204;-70
2024/03/03 03:22:02;;;;;;;1.20;0.95;;;20.50;68.20;;;;;;4998770;28;20204;-71
2024/03/03 03:24:29;;;;;;;1.58;0.90;;;20.40;68.20;;;;;;4979444;28;20215;-70
2024/03/03 03:26:56;;;;;;;1.10;0.80;;;20.50;68.50;;;;;;5000959;28;20286;-70
2024/03/03 03:29:24;;;;;;;1.38;0.80;;;20.70;68.60;;;;;;5001935;28;20200;-71
2024/03/03 03:31:51;;;;;;;2.22;0.80;;;20.70;68.70;;;;;;5000031;28;20670;-71
2024/03/03 03:34:18;;;;;;;1.33;0.98;;;20.20;68.10;;;;;;4987112;28;20346;-70
2024/03/03 03:36:44;;;;;;;1.30;1.08;;;20.40;68.50;;;;;;4998024;28;20203;-70
2024/03/03 03:39:13;;;;;;;1.30;0.80;;;20.50;68.60;;;;;;5000871;28;20653;-70
2024/03/03 03:41:44;;;;;;;2.65;0.70;;;20.70;68.90;;;;;;5006420;28;20219;-70
2024/03/03 03:44:11;;;;;;;1.10;0.80;;;20.60;68.60;;;;;;5004529;28;20342;-69
2024/03/03 03:46:39;;;;;;;1.10;0.90;;;20.60;68.60;;;;;;4999589;28;20197;-70
2024/03/03 03:49:07;;;;;;;1.20;0.70;;;20.70;68.80;;;;;;5004611;28;20201;-69
2024/03/03 03:51:33;;;;;;;1.30;0.82;;;20.60;68.60;;;;;;5002074;28;20203;-69
2024/03/03 03:54:00;;;;;;;1.00;0.88;;;20.70;68.70;;;;;;5001459;28;20223;-69
2024/03/03 03:56:27;;;;;;;1.10;0.93;;;20.40;68.30;;;;;;5002709;28;20208;-70
2024/03/03 03:58:53;;;;;;;1.20;0.90;;;20.60;68.60;;;;;;5000280;28;20188;-71
2024/03/03 04:01:20;;;;;;;1.20;0.80;;;20.60;68.80;;;;;;5000245;28;20200;-69
2024/03/03 04:03:48;;;;;;;1.75;0.98;;;20.60;68.70;;;;;;5002923;28;20431;-70
2024/03/03 04:06:15;;;;;;;1.10;0.90;;;20.60;68.90;;;;;;5006447;28;20809;-71
2024/03/03 04:08:42;;;;;;;1.27;0.98;;;20.60;68.80;;;;;;4984921;28;20195;-70
2024/03/03 04:11:09;;;;;;;1.10;0.80;;;20.60;68.70;;;;;;5004617;28;20526;-71
2024/03/03 04:13:35;;;;;;;1.20;0.80;;;20.60;68.70;;;;;;4999749;28;21331;-69
2024/03/03 04:16:02;;;;;;;1.30;0.98;;;20.80;69.10;;;;;;5002180;28;20199;-71
2024/03/03 04:18:29;;;;;;;1.70;1.13;;;20.60;68.70;;;;;;4997576;28;20201;-71
2024/03/03 04:20:57;;;;;;;1.52;1.15;;;20.50;69.60;;;;;;4999071;28;20211;-69
2024/03/03 04:23:23;;;;;;;1.10;0.80;;;20.50;68.80;;;;;;5003739;28;20703;-70
2024/03/03 04:25:50;;;;;;;1.10;0.90;;;20.40;68.70;;;;;;5007738;28;20971;-70
2024/03/03 04:28:17;;;;;;;1.10;0.82;;;20.50;68.90;;;;;;5004886;28;20207;-71
2024/03/03 04:30:43;;;;;;;1.45;0.80;;;20.50;69.70;;;;;;4988255;28;20633;-70
2024/03/03 04:33:12;;;;;;;1.20;0.95;;;20.40;68.60;;;;;;5006384;28;20196;-69
2024/03/03 04:35:42;;;;;;;1.45;0.90;;;20.50;68.90;;;;;;5003681;28;20224;-69
2024/03/03 04:38:10;;;;;;;2.38;0.70;;;20.50;68.80;;;;;;5001305;28;20762;-69
2024/03/03 04:40:37;;;;;;;1.00;0.80;;;20.50;68.80;;;;;;4999760;28;20203;-71
2024/03/03 04:43:04;;;;;;;1.15;0.80;;;20.70;69.20;;;;;;4999219;28;20653;-70
2024/03/03 04:45:31;;;;;;;1.10;0.80;;;20.50;68.90;;;;;;5004030;28;20212;-70
2024/03/03 04:47:58;;;;;;;1.10;0.70;;;20.40;68.70;;;;;;5005523;28;20208;-70
2024/03/03 04:50:24;;;;;;;1.75;0.90;;;20.30;68.50;;;;;;5004335;28;20710;-70
2024/03/03 04:52:51;;;;;;;1.00;0.80;;;21.00;69.50;;;;;;5003754;28;20203;-70
2024/03/03 04:55:19;;;;;;;1.00;0.85;;;20.50;68.70;;;;;;5008281;28;20223;-69
2024/03/03 04:57:46;;;;;;;1.30;0.80;;;20.50;68.80;;;;;;5003816;28;20199;-70
2024/03/03 05:00:14;;;;;;;1.00;0.80;;;20.20;68.60;;;;;;5006435;28;20580;-70
2024/03/03 05:02:41;;;;;;;1.10;0.90;;;20.50;68.80;;;;;;5002060;28;20827;-69
2024/03/03 05:05:08;;;;;;;1.20;0.82;;;20.40;68.80;;;;;;5001758;28;20196;-71
2024/03/03 05:07:34;;;;;;;1.30;1.10;;;20.90;69.40;;;;;;5007952;28;20283;-70
2024/03/03 05:10:01;;;;;;;1.30;0.95;;;20.40;68.80;;;;;;5005395;28;20196;-70
2024/03/03 05:12:29;;;;;;;1.10;0.80;;;20.30;68.80;;;;;;5008503;28;20230;-69
2024/03/03 05:14:56;;;;;;;1.05;0.85;;;20.20;68.60;;;;;;5001591;28;20876;-70
2024/03/03 05:17:23;;;;;;;1.50;0.90;;;20.40;69.00;;;;;;5006569;28;20204;-69
2024/03/03 05:19:50;;;;;;;1.10;0.73;;;20.20;68.80;;;;;;5004505;28;20747;-71
2024/03/03 05:22:17;;;;;;;1.00;0.90;;;20.30;68.60;;;;;;5005704;28;20200;-70
2024/03/03 05:24:44;;;;;;;1.20;0.82;;;20.40;68.90;;;;;;4992942;28;20199;-71
2024/03/03 05:27:11;;;;;;;1.40;1.13;;;20.30;68.90;;;;;;4998604;28;20624;-70
2024/03/03 05:29:39;;;;;;;1.38;0.98;;;20.90;69.50;;;;;;5003151;28;20211;-70
2024/03/03 05:32:06;;;;;;;1.30;0.90;;;20.60;69.10;;;;;;5004320;28;20187;-71
2024/03/03 05:34:32;;;;;;;1.00;0.73;;;20.40;68.90;;;;;;5001892;28;20293;-69
2024/03/03 05:36:59;;;;;;;1.23;0.80;;;20.40;68.90;;;;;;5002389;28;20203;-69
2024/03/03 05:39:27;;;;;;;1.30;0.80;;;20.50;68.90;;;;;;5001035;28;20211;-71
2024/03/03 05:41:53;;;;;;;1.10;0.85;;;20.40;69.00;;;;;;5003904;28;20522;-70
2024/03/03 05:44:21;;;;;;;1.40;1.25;;;20.40;68.90;;;;;;5003059;28;20200;-71
2024/03/03 05:46:49;;;;;;;1.08;0.88;;;20.40;68.90;;;;;;5004443;28;20807;-70
2024/03/03 05:49:16;;;;;;;1.00;0.82;;;20.40;68.90;;;;;;5005984;28;20770;-69
2024/03/03 05:51:43;;;;;;;1.25;0.90;;;20.30;68.90;;;;;;5003134;28;20196;-70
2024/03/03 05:54:09;;;;;;;1.17;0.75;;;20.60;69.20;;;;;;5004023;28;20196;-71
2024/03/03 05:56:36;;;;;;;1.00;0.70;;;20.20;68.80;;;;;;5001981;28;20214;-70
2024/03/03 05:59:03;;;;;;;0.90;0.70;;;20.30;68.90;;;;;;5003686;28;20652;-70
2024/03/03 06:01:30;;;;;;;0.90;0.80;;;20.20;68.90;;;;;;5000591;28;21013;-70
2024/03/03 06:03:58;;;;;;;1.05;0.68;;;20.40;69.10;;;;;;5000775;28;20228;-70
2024/03/03 06:06:24;;;;;;;1.30;0.90;;;20.40;69.10;;;;;;5002777;28;20207;-70
2024/03/03 06:08:51;;;;;;;1.20;1.10;;;20.40;69.00;;;;;;4996068;28;20203;-70
2024/03/03 06:11:18;;;;;;;1.08;0.80;;;20.20;68.90;;;;;;5001978;28;20677;-69
2024/03/03 06:13:45;;;;;;;1.10;0.77;;;20.40;69.10;;;;;;5001847;28;20618;-70
2024/03/03 06:16:12;;;;;;;1.10;0.80;;;20.40;69.10;;;;;;5003093;28;20311;-70
2024/03/03 06:18:39;;;;;;;1.15;0.80;;;20.20;68.90;;;;;;5003087;28;20205;-71
2024/03/03 06:21:07;;;;;;;1.10;0.90;;;20.40;69.10;;;;;;5004739;28;20200;-69
2024/03/03 06:23:36;;;;;;;1.20;0.95;;;20.40;69.10;;;;;;4989681;28;20319;-70
2024/03/03 06:26:02;;;;;;;1.40;1.10;;;20.30;69.10;;;;;;4998724;28;20211;-69
2024/03/03 06:28:29;;;;;;;1.27;0.80;;;20.10;68.70;;;;;;5003212;28;20189;-70
2024/03/03 06:30:56;;;;;;;1.00;0.80;;;20.30;68.90;;;;;;5003427;28;20188;-70
2024/03/03 06:33:22;;;;;;;1.75;0.80;;;20.30;69.00;;;;;;5004345;28;20211;-70
2024/03/03 06:35:49;;;;;;;1.30;0.80;;;20.50;69.30;;;;;;5005127;28;20223;-71
2024/03/03 06:38:17;;;;;;;1.20;0.85;;;20.30;69.10;;;;;;5008250;28;20282;-70
2024/03/03 06:40:45;;;;;;;1.20;1.10;;;20.30;69.10;;;;;;5002098;28;20414;-71
2024/03/03 06:43:11;;;;;;;0.95;0.70;;;20.30;69.50;;;;;;5005016;28;20200;-70
2024/03/03 06:45:38;;;;;;;0.90;0.70;;;20.10;68.80;;;;;;5007762;28;20200;-71
2024/03/03 06:48:05;;;;;;;1.10;0.90;;;20.30;69.00;;;;;;5008970;28;20217;-70
2024/03/03 06:50:32;;;;;;;1.20;0.90;;;20.30;68.90;;;;;;5004315;28;20577;-70
2024/03/03 06:52:59;;;;;;;1.10;0.80;;;20.10;68.90;;;;;;5005100;28;20211;-70
2024/03/03 06:55:27;;;;;;;1.00;0.80;;;20.30;69.10;;;;;;5001689;28;20231;-69
2024/03/03 06:57:54;;;;;;;1.00;0.70;;;20.30;69.00;;;;;;5011075;28;20191;-70
2024/03/03 07:00:21;;;;;;;1.30;0.80;;;20.30;69.00;;;;;;5003971;28;20204;-71
2024/03/03 07:03:29;;;;;;;1.17;1.00;;;20.30;69.10;;;;;;5002124;28;20200;-70
2024/03/03 07:05:55;;;;;;;2.17;0.90;;;20.20;69.00;;;;;;5002270;28;20774;-70
2024/03/03 07:08:22;;;;;;;0.95;0.80;;;20.30;70.00;;;;;;5003630;28;20199;-70
2024/03/03 07:10:50;;;;;;;0.93;0.70;;;20.20;68.90;;;;;;5001641;28;20207;-70
2024/03/03 07:13:17;;;;;;;1.05;0.80;;;20.20;69.00;;;;;;5002863;28;20204;-69
2024/03/03 07:15:43;;;;;;;2.00;1.00;;;20.20;69.10;;;;;;4997396;28;20227;-69
2024/03/03 07:18:10;;;;;;;1.10;0.90;;;20.10;68.80;;;;;;5003540;28;20188;-69
2024/03/03 07:20:37;;;;;;;1.00;0.70;;;20.20;69.20;;;;;;5000636;28;20204;-69
2024/03/03 07:23:04;;;;;;;1.80;1.00;;;20.20;69.10;;;;;;4999992;28;20688;-76
2024/03/03 07:25:31;;;;;;;1.40;1.08;;;20.20;69.90;;;;;;4995173;28;20211;-67
2024/03/03 07:28:00;;;;;;;1.02;0.80;;;20.50;70.40;;;;;;5002430;28;20211;-67
2024/03/03 07:30:26;;;;;;;1.00;0.80;;;20.30;70.40;;;;;;4998392;28;20946;-68
2024/03/03 07:32:53;;;;;;;1.10;0.82;;;20.60;70.60;;;;;;5002570;28;20221;-68
2024/03/03 07:35:20;;;;;;;1.13;0.80;;;20.30;70.80;;;;;;5001697;28;20248;-68
2024/03/03 07:37:46;;;;;;;1.83;0.90;;;20.30;70.80;;;;;;5003262;28;20202;-68
2024/03/03 07:40:13;;;;;;;1.85;1.23;;;20.20;70.80;;;;;;4999205;28;20201;-68
2024/03/03 07:42:41;;;;;;;1.67;1.40;;;20.30;71.00;;;;;;5002188;28;20196;-68
2024/03/03 07:45:10;;;;;;;1.70;1.40;;;20.40;71.40;;;;;;4998853;28;20204;-68
2024/03/03 07:47:37;;;;;;;4.40;2.67;;;20.40;70.80;;;;;;4996707;28;20400;-69
2024/03/03 07:50:04;;;;;;;2.15;1.40;;;20.40;70.70;;;;;;5001687;28;20621;-69
2024/03/03 07:52:31;;;;;;;1.60;1.33;;;20.40;70.60;;;;;;5000911;28;20202;-69
2024/03/03 07:54:58;;;;;;;2.20;1.55;;;20.40;70.60;;;;;;5000434;28;20841;-66
2024/03/03 07:57:24;;;;;;;2.50;1.80;;;20.30;70.30;;;;;;4998813;28;20196;-68
2024/03/03 07:59:51;;;;;;;7.55;1.30;;;20.90;71.00;;;;;;5001421;28;20196;-69
2024/03/03 08:02:19;;;;;;;3.05;1.10;;;20.50;70.60;;;;;;4995482;28;20205;-69
2024/03/03 08:04:46;;;;;;;3.10;1.75;;;20.50;70.70;;;;;;4999328;28;20203;-69
2024/03/03 08:07:12;;;;;;;5.05;1.20;;;20.50;70.40;;;;;;4995477;28;20188;-67
2024/03/03 08:09:39;;;;;;;1.52;1.20;;;20.60;70.70;;;;;;5001231;28;20220;-69
2024/03/03 08:12:07;;;;;;;2.40;1.15;;;20.60;70.90;;;;;;4999642;28;20660;-69
2024/03/03 08:14:33;;;;;;;2.60;1.48;;;20.60;70.70;;;;;;4999925;28;20213;-69
2024/03/03 08:17:00;;;;;;;1.30;1.17;;;20.60;70.70;;;;;;4997522;28;20231;-69
2024/03/03 08:19:28;;;;;;;1.65;1.13;;;20.50;70.60;;;;;;5001261;28;20287;-69
2024/03/03 08:21:56;;;;;;;2.72;1.10;;;20.80;70.80;;;;;;5000477;28;20204;-68
2024/03/03 08:24:22;;;;;;;2.78;1.40;;;20.50;70.40;;;;;;5001302;28;20196;-69
2024/03/03 08:26:49;;;;;;;1.98;1.55;;;20.70;70.60;;;;;;5007432;28;20886;-68
2024/03/03 08:29:17;;;;;;;2.05;1.15;;;20.70;70.50;;;;;;5004253;28;20200;-69
2024/03/03 08:31:44;;;;;;;1.85;1.25;;;20.70;70.40;;;;;;5005850;28;20210;-68
2024/03/03 08:34:11;;;;;;;1.38;1.20;;;20.50;70.20;;;;;;5003155;28;20231;-69
2024/03/03 08:36:40;;;;;;;1.38;1.13;;;20.70;70.40;;;;;;5005942;28;20223;-69
2024/03/03 08:39:09;;;;;;;5.78;1.65;;;20.40;70.00;;;;;;4995983;28;20200;-69
2024/03/03 08:41:37;;;;;;;2.95;1.20;;;20.70;70.30;;;;;;4998988;28;20206;-69
2024/03/03 08:44:04;;;;;;;1.45;1.20;;;20.70;70.40;;;;;;5003829;28;20209;-68
2024/03/03 08:46:30;;;;;;;1.20;1.10;;;20.80;70.60;;;;;;5004713;28;20196;-68
2024/03/03 08:48:57;;;;;;;1.17;0.90;;;20.80;70.30;;;;;;5008346;28;20196;-69
2024/03/03 08:51:24;;;;;;;2.97;1.30;;;20.80;70.30;;;;;;5002454;28;20200;-68
2024/03/03 08:53:52;;;;;;;1.65;1.30;;;20.80;70.40;;;;;;4997874;28;20915;-68
2024/03/03 08:56:18;;;;;;;1.95;1.25;;;20.80;70.30;;;;;;5004193;28;20233;-69
2024/03/03 08:58:45;;;;;;;1.40;0.93;;;20.80;70.30;;;;;;5009082;28;20195;-69
2024/03/03 09:01:14;;;;;;;1.80;1.25;;;20.80;70.40;;;;;;5004491;28;20643;-69
2024/03/03 09:03:41;;;;;;;1.52;1.00;;;20.70;70.20;;;;;;5003273;28;20553;-69
2024/03/03 09:06:07;;;;;;;1.20;1.10;;;21.20;70.70;;;;;;5001664;28;20189;-68
2024/03/03 09:08:34;;;;;;;2.53;1.15;;;20.90;70.30;;;;;;5003454;28;20200;-68
2024/03/03 09:11:05;;;;;;;1.90;0.90;;;20.90;70.40;;;;;;5001775;28;20197;-68
2024/03/03 09:13:31;;;;;;;1.13;0.85;;;20.80;70.20;;;;;;5004942;28;20556;-69
2024/03/03 09:15:58;;;;;;;1.13;0.80;;;20.70;70.10;;;;;;5010623;28;20220;-68
2024/03/03 09:18:24;;;;;;;2.65;1.15;;;20.90;70.40;;;;;;5004295;28;20204;-68
2024/03/03 09:20:51;;;;;;;1.77;1.00;;;20.90;70.40;;;;;;5007447;28;20196;-69
2024/03/03 09:23:18;;;;;;;1.00;0.80;;;20.60;70.00;;;;;;5002665;28;20242;-69
2024/03/03 09:25:45;;;;;;;1.85;0.88;;;21.40;70.90;;;;;;4997884;28;20498;-69
2024/03/03 09:28:13;;;;;;;1.17;0.90;;;20.90;70.40;;;;;;5006498;28;20295;-68
2024/03/03 09:30:40;;;;;;;1.17;1.00;;;20.70;70.10;;;;;;5006059;28;20204;-69
2024/03/03 09:33:06;;;;;;;1.50;1.05;;;20.90;70.40;;;;;;5005429;28;20204;-69
2024/03/03 09:35:33;;;;;;;1.30;1.13;;;20.90;70.40;;;;;;4997315;28;20231;-68
2024/03/03 09:38:00;;;;;;;1.55;1.40;;;20.90;70.40;;;;;;5000809;28;20193;-69
2024/03/03 09:40:27;;;;;;;1.45;1.30;;;20.90;70.30;;;;;;5000510;28;20200;-68
2024/03/03 09:42:54;;;;;;;1.40;0.90;;;21.30;70.70;;;;;;5003903;28;20517;-68
2024/03/03 09:45:25;;;;;;;1.23;1.10;;;20.90;70.10;;;;;;5003327;28;20200;-69
2024/03/03 09:47:52;;;;;;;2.97;1.00;;;21.10;70.40;;;;;;5001293;28;20282;-68
2024/03/03 09:50:21;;;;;;;1.10;1.00;;;20.80;70.00;;;;;;5007662;28;20228;-68
2024/03/03 09:52:52;;;;;;;1.30;1.17;;;20.70;69.90;;;;;;5005238;28;20207;-69
2024/03/03 09:55:20;;;;;;;1.10;0.90;;;21.00;70.30;;;;;;5006622;28;20207;-69
2024/03/03 09:57:47;;;;;;;1.27;1.00;;;21.00;70.30;;;;;;4994751;28;20199;-69
2024/03/03 10:00:15;;;;;;;1.10;0.80;;;20.90;70.00;;;;;;5002052;28;20277;-69
2024/03/03 10:02:43;;;;;;;1.58;1.17;;;21.00;70.30;;;;;;5001420;28;20204;-68
2024/03/03 10:05:10;;;;;;;1.45;1.00;;;20.90;70.00;;;;;;4998394;28;20199;-68
2024/03/03 10:07:41;;;;;;;1.10;0.80;;;21.00;70.10;;;;;;4999848;28;20266;-69
2024/03/03 10:10:09;;;;;;;1.30;1.15;;;21.00;70.10;;;;;;5000455;28;20282;-69
2024/03/03 10:12:36;;;;;;;2.03;0.90;;;21.00;70.00;;;;;;5003108;28;20227;-68
2024/03/03 10:15:08;;;;;;;1.10;0.80;;;21.30;70.40;;;;;;5004005;28;20297;-69
2024/03/03 10:17:34;;;;;;;1.10;1.00;;;21.00;70.00;;;;;;5003085;28;20220;-69
2024/03/03 10:20:06;;;;;;;1.48;1.05;;;21.10;70.20;;;;;;5005584;28;20619;-68
2024/03/03 10:22:33;;;;;;;2.05;0.90;;;21.00;70.00;;;;;;5002574;28;20203;-68
2024/03/03 10:25:11;;;;;;;1.40;1.10;;;20.90;70.00;;;;;;5004951;28;20284;-69
2024/03/03 10:27:39;;;;;;;1.40;1.00;;;21.10;70.10;;;;;;4998855;28;20322;-68
2024/03/03 10:30:07;;;;;;;2.17;1.00;;;21.30;70.30;;;;;;5004312;28;20216;-69
2024/03/03 10:32:34;;;;;;;1.13;0.95;;;21.10;70.10;;;;;;5006295;28;20212;-69
2024/03/03 10:35:02;;;;;;;1.40;1.10;;;21.10;70.10;;;;;;5006380;28;20611;-68
2024/03/03 10:37:29;;;;;;;1.58;1.10;;;21.30;70.10;;;;;;5000223;28;20224;-69
2024/03/03 10:39:56;;;;;;;1.42;1.10;;;21.10;70.00;;;;;;5005081;28;20204;-68
2024/03/03 10:42:24;;;;;;;1.10;0.80;;;21.10;70.00;;;;;;5007392;28;20201;-68
2024/03/03 10:44:51;;;;;;;1.38;1.08;;;21.10;70.10;;;;;;5000046;28;20652;-68
2024/03/03 10:47:18;;;;;;;1.20;0.93;;;21.10;69.90;;;;;;5001212;28;20214;-68
2024/03/03 10:49:46;;;;;;;1.13;0.98;;;21.20;70.00;;;;;;5007138;28;20802;-68
2024/03/03 10:52:14;;;;;;;1.20;1.10;;;21.00;69.70;;;;;;5005103;28;20296;-68
2024/03/03 10:54:42;;;;;;;1.40;1.00;;;21.40;70.30;;;;;;5004636;28;20199;-69
2024/03/03 10:57:09;;;;;;;1.20;1.10;;;21.60;70.40;;;;;;5004011;28;20239;-69
2024/03/03 10:59:38;;;;;;;1.40;1.05;;;21.00;69.70;;;;;;5004682;28;20211;-68
2024/03/03 11:02:06;;;;;;;1.92;0.88;;;21.10;69.80;;;;;;5002008;28;20201;-68
2024/03/03 11:04:37;;;;;;;1.10;0.90;;;21.10;69.80;;;;;;5005195;28;20572;-68
2024/03/03 11:07:04;;;;;;;1.15;0.93;;;21.10;69.80;;;;;;5007422;28;20202;-68
2024/03/03 11:09:33;;;;;;;1.48;0.93;;;21.20;69.90;;;;;;5001150;28;20212;-68
2024/03/03 11:12:05;;;;;;;1.50;1.25;;;21.20;69.80;;;;;;5003910;28;20219;-68
2024/03/03 11:14:33;;;;;;;1.30;0.90;;;21.20;69.80;;;;;;5006108;28;20722;-69
2024/03/03 11:17:04;;;;;;;2.25;1.00;;;21.20;69.80;;;;;;5003162;28;20775;-68
2024/03/03 11:19:36;;;;;;;1.00;0.80;;;21.20;69.80;;;;;;5006635;28;20196;-69
2024/03/03 11:22:07;;;;;;;1.10;1.00;;;21.40;70.00;;;;;;5009776;28;20339;-68
2024/03/03 11:24:41;;;;;;;1.50;0.90;;;21.20;69.80;;;;;;5007713;28;20196;-68
2024/03/03 11:27:14;;;;;;;2.00;1.03;;;21.20;69.70;;;;;;5007656;28;20202;-68
2024/03/03 11:29:43;;;;;;;1.65;1.00;;;21.50;70.30;;;;;;5010610;28;20472;-68
2024/03/03 11:32:12;;;;;;;1.25;0.95;;;21.00;69.40;;;;;;5003439;28;20219;-69
2024/03/03 11:34:39;;;;;;;1.75;1.35;;;21.20;69.70;;;;;;5010198;28;20204;-69
2024/03/03 11:37:09;;;;;;;1.20;0.90;;;21.20;69.70;;;;;;4999105;28;20220;-69
2024/03/03 11:39:38;;;;;;;1.02;0.90;;;20.90;69.20;;;;;;5001122;28;20632;-68
2024/03/03 11:42:20;;;;;;;1.50;1.20;;;21.20;69.60;;;;;;4998657;28;20255;-68
2024/03/03 11:44:52;;;;;;;1.30;1.15;;;21.20;69.60;;;;;;5004588;28;20205;-69
2024/03/03 11:47:19;;;;;;;1.67;0.90;;;21.20;69.60;;;;;;5004471;28;20211;-68
2024/03/03 11:49:46;;;;;;;1.70;1.17;;;21.20;69.60;;;;;;5006934;28;20866;-68
2024/03/03 11:52:41;;;;;;;1.17;1.00;;;21.30;69.70;;;;;;5006153;28;20208;-68
2024/03/03 11:55:09;;;;;;;0.90;0.80;;;21.30;69.60;;;;;;4997683;28;20221;-68
2024/03/03 11:57:38;;;;;;;2.17;1.00;;;21.30;69.60;;;;;;5003365;28;20227;-69
2024/03/03 12:00:13;;;;;;;1.92;1.38;;;21.40;69.70;;;;;;5004187;28;20184;-68
2024/03/03 12:02:41;;;;;;;1.45;1.35;;;21.30;69.60;;;;;;5000901;28;20195;-68
2024/03/03 12:05:09;;;;;;;1.30;1.20;;;21.20;69.50;;;;;;5008420;28;20196;-68
2024/03/03 12:07:38;;;;;;;1.10;1.00;;;21.30;69.50;;;;;;5005596;28;20532;-68
2024/03/03 12:10:12;;;;;;;1.23;1.00;;;21.50;69.80;;;;;;5004904;28;20536;-68
2024/03/03 12:12:41;;;;;;;1.20;1.00;;;21.30;69.50;;;;;;5002729;28;20211;-68
2024/03/03 12:15:09;;;;;;;1.20;0.90;;;21.10;69.40;;;;;;5003345;28;20211;-68
2024/03/03 12:17:36;;;;;;;1.15;0.90;;;21.30;69.50;;;;;;5003021;28;20377;-68
2024/03/03 12:20:06;;;;;;;1.30;1.00;;;21.30;69.80;;;;;;5007446;28;20224;-68
2024/03/03 12:22:33;;;;;;;1.10;0.98;;;21.10;69.30;;;;;;5001721;28;20208;-67
2024/03/03 12:25:00;;;;;;;1.00;0.70;;;21.30;69.60;;;;;;5004855;28;20195;-69
2024/03/03 12:27:27;;;;;;;1.10;0.90;;;21.30;69.50;;;;;;5004352;28;20211;-68
2024/03/03 12:29:59;;;;;;;1.10;0.90;;;21.30;69.50;;;;;;5006196;28;20197;-68
2024/03/03 12:32:27;;;;;;;1.47;1.00;;;21.30;69.50;;;;;;5007276;28;20231;-68
2024/03/03 12:34:55;;;;;;;1.52;1.05;;;21.30;69.60;;;;;;5006469;28;20522;-69
2024/03/03 12:37:22;;;;;;;1.73;1.25;;;21.20;69.30;;;;;;5006311;28;20234;-68
2024/03/03 12:39:49;;;;;;;1.30;1.20;;;21.30;69.50;;;;;;4999187;28;21882;-68
2024/03/03 12:42:15;;;;;;;1.58;1.10;;;21.30;69.60;;;;;;5007704;28;20569;-69
2024/03/03 12:44:43;;;;;;;1.50;1.30;;;21.30;69.50;;;;;;5005646;28;20215;-69
2024/03/03 12:47:14;;;;;;;1.10;0.90;;;21.30;69.50;;;;;;5004128;28;20211;-69
2024/03/03 12:49:42;;;;;;;1.20;0.95;;;21.30;69.50;;;;;;5003926;28;20203;-68
2024/03/03 12:52:10;;;;;;;0.95;0.80;;;21.30;69.40;;;;;;5004512;28;20484;-68
2024/03/03 12:54:37;;;;;;;1.35;1.00;;;21.30;69.40;;;;;;5002970;28;20201;-68